sensor_id;sensor_type;location;lat;lon;timestamp;temperature;humidity
4964;DHT22;2497;47.410;9.740;2022-11-24T00:01:04;6.10;99.90
4964;DHT22;2497;47.410;9.740;2022-11-24T00:03:31;6.20;99.90
4964;DHT22;2497;47.410;9.740;2022-11-24T00:06:03;6.20;99.90
4964;DHT22;2497;47.410;9.740;2022-11-24T00:08:32;6.30;99.90
4964;DHT22;2497;47.410;9.740;2022-11-24T00:11:05;6.40;99.90
4964;DHT22;2497;47.410;9.740;2022-11-24T00:13:34;6.30;99.90
4964;DHT22;2497;47.410;9.740;2022-11-24T00:16:05;6.30;99.90
4964;DHT22;2497;47.410;9.740;2022-11-24T00:18:33;6.30;99.90
4964;DHT22;2497;47.410;9.740;2022-11-24T00:21:01;6.30;99.90
4964;DHT22;2497;47.410;9.740;2022-11-24T00:23:28;6.30;99.90
4964;DHT22;2497;47.410;9.740;2022-11-24T00:26:04;6.20;99.90
4964;DHT22;2497;47.410;9.740;2022-11-24T00:28:34;6.30;99.90
4964;DHT22;2497;47.410;9.740;2022-11-24T00:31:04;6.20;99.90
4964;DHT22;2497;47.410;9.740;2022-11-24T00:33:31;6.20;99.90
4964;DHT22;2497;47.410;9.740;2022-11-24T00:35:59;6.10;99.90
4964;DHT22;2497;47.410;9.740;2022-11-24T00:38:27;6.00;99.90
4964;DHT22;2497;47.410;9.740;2022-11-24T00:40:54;6.00;99.90
4964;DHT22;2497;47.410;9.740;2022-11-24T00:43:27;5.90;99.90
4964;DHT22;2497;47.410;9.740;2022-11-24T00:45:54;5.90;99.90
4964;DHT22;2497;47.410;9.740;2022-11-24T00:48:22;6.00;99.90
4964;DHT22;2497;47.410;9.740;2022-11-24T00:50:57;6.00;99.90
4964;DHT22;2497;47.410;9.740;2022-11-24T00:53:25;6.10;99.90
4964;DHT22;2497;47.410;9.740;2022-11-24T00:55:54;5.90;99.90
4964;DHT22;2497;47.410;9.740;2022-11-24T00:58:24;5.80;99.90
4964;DHT22;2497;47.410;9.740;2022-11-24T01:00:52;5.70;99.90
4964;DHT22;2497;47.410;9.740;2022-11-24T01:03:21;5.70;99.90
4964;DHT22;2497;47.410;9.740;2022-11-24T01:05:49;5.60;99.90
4964;DHT22;2497;47.410;9.740;2022-11-24T01:08:16;5.60;99.90
4964;DHT22;2497;47.410;9.740;2022-11-24T01:10:44;5.60;99.90
4964;DHT22;2497;47.410;9.740;2022-11-24T01:13:11;5.60;99.90
4964;DHT22;2497;47.410;9.740;2022-11-24T01:15:41;5.70;99.90
4964;DHT22;2497;47.410;9.740;2022-11-24T01:18:08;5.80;99.90
4964;DHT22;2497;47.410;9.740;2022-11-24T01:20:37;5.90;99.90
4964;DHT22;2497;47.410;9.740;2022-11-24T01:23:05;6.00;99.90
4964;DHT22;2497;47.410;9.740;2022-11-24T01:25:32;6.10;99.90
4964;DHT22;2497;47.410;9.740;2022-11-24T01:28:00;5.90;99.90
4964;DHT22;2497;47.410;9.740;2022-11-24T01:30:27;5.80;99.90
4964;DHT22;2497;47.410;9.740;2022-11-24T01:32:56;5.70;99.90
4964;DHT22;2497;47.410;9.740;2022-11-24T01:35:24;5.70;99.90
4964;DHT22;2497;47.410;9.740;2022-11-24T01:37:51;5.70;99.90
4964;DHT22;2497;47.410;9.740;2022-11-24T01:40:19;5.70;99.90
4964;DHT22;2497;47.410;9.740;2022-11-24T01:42:48;5.80;99.90
4964;DHT22;2497;47.410;9.740;2022-11-24T01:45:35;5.80;99.90
4964;DHT22;2497;47.410;9.740;2022-11-24T01:48:12;5.80;99.90
4964;DHT22;2497;47.410;9.740;2022-11-24T01:50:42;5.60;99.90
4964;DHT22;2497;47.410;9.740;2022-11-24T01:53:11;5.60;99.90
4964;DHT22;2497;47.410;9.740;2022-11-24T01:55:40;5.60;99.90
4964;DHT22;2497;47.410;9.740;2022-11-24T01:58:11;5.60;99.90
4964;DHT22;2497;47.410;9.740;2022-11-24T02:00:41;5.50;99.90
4964;DHT22;2497;47.410;9.740;2022-11-24T02:03:14;5.50;99.90
4964;DHT22;2497;47.410;9.740;2022-11-24T02:05:46;5.60;99.90
4964;DHT22;2497;47.410;9.740;2022-11-24T02:08:18;5.60;99.90
4964;DHT22;2497;47.410;9.740;2022-11-24T02:10:47;5.50;99.90
4964;DHT22;2497;47.410;9.740;2022-11-24T02:13:16;5.50;99.90
4964;DHT22;2497;47.410;9.740;2022-11-24T02:15:44;5.50;99.90
4964;DHT22;2497;47.410;9.740;2022-11-24T02:18:13;5.50;99.90
4964;DHT22;2497;47.410;9.740;2022-11-24T02:20:41;5.50;99.90
4964;DHT22;2497;47.410;9.740;2022-11-24T02:23:16;5.60;99.90
4964;DHT22;2497;47.410;9.740;2022-11-24T02:25:53;5.70;99.90
4964;DHT22;2497;47.410;9.740;2022-11-24T02:28:26;5.70;99.90
4964;DHT22;2497;47.410;9.740;2022-11-24T02:30:56;5.70;99.90
4964;DHT22;2497;47.410;9.740;2022-11-24T02:33:24;5.80;99.90
4964;DHT22;2497;47.410;9.740;2022-11-24T02:35:53;5.70;99.90
4964;DHT22;2497;47.410;9.740;2022-11-24T02:38:28;5.70;99.90
4964;DHT22;2497;47.410;9.740;2022-11-24T02:40:57;5.70;99.90
4964;DHT22;2497;47.410;9.740;2022-11-24T02:43:28;5.70;99.90
4964;DHT22;2497;47.410;9.740;2022-11-24T02:45:56;5.60;99.90
4964;DHT22;2497;47.410;9.740;2022-11-24T02:48:24;5.50;99.90
4964;DHT22;2497;47.410;9.740;2022-11-24T02:50:53;5.50;99.90
4964;DHT22;2497;47.410;9.740;2022-11-24T02:53:20;5.40;99.90
4964;DHT22;2497;47.410;9.740;2022-11-24T02:55:48;5.30;99.90
4964;DHT22;2497;47.410;9.740;2022-11-24T02:58:16;5.30;99.90
4964;DHT22;2497;47.410;9.740;2022-11-24T03:00:46;5.30;99.90
4964;DHT22;2497;47.410;9.740;2022-11-24T03:03:14;5.30;99.90
4964;DHT22;2497;47.410;9.740;2022-11-24T03:05:41;5.30;99.90
4964;DHT22;2497;47.410;9.740;2022-11-24T03:08:09;5.40;99.90
4964;DHT22;2497;47.410;9.740;2022-11-24T03:10:37;5.40;99.90
4964;DHT22;2497;47.410;9.740;2022-11-24T03:13:05;5.50;99.90
4964;DHT22;2497;47.410;9.740;2022-11-24T03:15:32;5.50;99.90
4964;DHT22;2497;47.410;9.740;2022-11-24T03:18:02;5.50;99.90
4964;DHT22;2497;47.410;9.740;2022-11-24T03:20:29;5.60;99.90
4964;DHT22;2497;47.410;9.740;2022-11-24T03:22:57;5.60;99.90
4964;DHT22;2497;47.410;9.740;2022-11-24T03:25:24;5.70;99.90
4964;DHT22;2497;47.410;9.740;2022-11-24T03:27:52;5.70;99.90
4964;DHT22;2497;47.410;9.740;2022-11-24T03:30:21;5.70;99.90
4964;DHT22;2497;47.410;9.740;2022-11-24T03:32:50;5.80;99.90
4964;DHT22;2497;47.410;9.740;2022-11-24T03:35:20;5.90;99.90
4964;DHT22;2497;47.410;9.740;2022-11-24T03:37:48;5.90;99.90
4964;DHT22;2497;47.410;9.740;2022-11-24T03:40:16;5.90;99.90
4964;DHT22;2497;47.410;9.740;2022-11-24T03:42:45;5.90;99.90
4964;DHT22;2497;47.410;9.740;2022-11-24T03:45:12;5.80;99.90
4964;DHT22;2497;47.410;9.740;2022-11-24T03:47:41;5.80;99.90
4964;DHT22;2497;47.410;9.740;2022-11-24T03:50:09;5.70;99.90
4964;DHT22;2497;47.410;9.740;2022-11-24T03:52:41;5.60;99.90
4964;DHT22;2497;47.410;9.740;2022-11-24T03:55:09;5.60;99.90
4964;DHT22;2497;47.410;9.740;2022-11-24T03:57:36;5.60;99.90
4964;DHT22;2497;47.410;9.740;2022-11-24T04:00:05;5.60;99.90
4964;DHT22;2497;47.410;9.740;2022-11-24T04:02:33;5.60;99.90
4964;DHT22;2497;47.410;9.740;2022-11-24T04:05:00;5.60;99.90
4964;DHT22;2497;47.410;9.740;2022-11-24T04:07:28;5.60;99.90
4964;DHT22;2497;47.410;9.740;2022-11-24T04:09:57;5.70;99.90
4964;DHT22;2497;47.410;9.740;2022-11-24T04:12:25;5.80;99.90
4964;DHT22;2497;47.410;9.740;2022-11-24T04:15:10;5.80;99.90
4964;DHT22;2497;47.410;9.740;2022-11-24T04:17:38;5.70;99.90
4964;DHT22;2497;47.410;9.740;2022-11-24T04:20:07;5.70;99.90
4964;DHT22;2497;47.410;9.740;2022-11-24T04:22:35;5.60;99.90
4964;DHT22;2497;47.410;9.740;2022-11-24T04:25:05;5.60;99.90
4964;DHT22;2497;47.410;9.740;2022-11-24T04:27:34;5.60;99.90
4964;DHT22;2497;47.410;9.740;2022-11-24T04:30:03;5.60;99.90
4964;DHT22;2497;47.410;9.740;2022-11-24T04:32:31;5.60;99.90
4964;DHT22;2497;47.410;9.740;2022-11-24T04:34:59;5.70;99.90
4964;DHT22;2497;47.410;9.740;2022-11-24T04:37:27;5.70;99.90
4964;DHT22;2497;47.410;9.740;2022-11-24T04:39:54;5.90;99.90
4964;DHT22;2497;47.410;9.740;2022-11-24T04:42:24;6.00;99.90
4964;DHT22;2497;47.410;9.740;2022-11-24T04:44:52;5.80;99.90
4964;DHT22;2497;47.410;9.740;2022-11-24T04:47:21;5.60;99.90
4964;DHT22;2497;47.410;9.740;2022-11-24T04:49:49;5.60;99.90
4964;DHT22;2497;47.410;9.740;2022-11-24T04:52:17;5.50;99.90
4964;DHT22;2497;47.410;9.740;2022-11-24T04:54:45;5.40;99.90
4964;DHT22;2497;47.410;9.740;2022-11-24T04:57:15;5.40;99.90
4964;DHT22;2497;47.410;9.740;2022-11-24T04:59:43;5.40;99.90
4964;DHT22;2497;47.410;9.740;2022-11-24T05:02:11;5.30;99.90
4964;DHT22;2497;47.410;9.740;2022-11-24T05:04:39;5.30;99.90
4964;DHT22;2497;47.410;9.740;2022-11-24T05:07:09;5.30;99.90
4964;DHT22;2497;47.410;9.740;2022-11-24T05:09:37;5.40;99.90
4964;DHT22;2497;47.410;9.740;2022-11-24T05:12:25;5.30;99.90
4964;DHT22;2497;47.410;9.740;2022-11-24T05:14:57;5.30;99.90
4964;DHT22;2497;47.410;9.740;2022-11-24T05:17:27;5.40;99.90
4964;DHT22;2497;47.410;9.740;2022-11-24T05:19:55;5.40;99.90
4964;DHT22;2497;47.410;9.740;2022-11-24T05:22:23;5.50;99.90
4964;DHT22;2497;47.410;9.740;2022-11-24T05:24:51;5.50;99.90
4964;DHT22;2497;47.410;9.740;2022-11-24T05:27:19;5.40;99.90
4964;DHT22;2497;47.410;9.740;2022-11-24T05:29:46;5.40;99.90
4964;DHT22;2497;47.410;9.740;2022-11-24T05:32:15;5.30;99.90
4964;DHT22;2497;47.410;9.740;2022-11-24T05:34:43;5.30;99.90
4964;DHT22;2497;47.410;9.740;2022-11-24T05:37:10;5.30;99.90
4964;DHT22;2497;47.410;9.740;2022-11-24T05:39:39;5.30;99.90
4964;DHT22;2497;47.410;9.740;2022-11-24T05:42:07;5.30;99.90
4964;DHT22;2497;47.410;9.740;2022-11-24T05:44:51;5.40;99.90
4964;DHT22;2497;47.410;9.740;2022-11-24T05:47:20;5.40;99.90
4964;DHT22;2497;47.410;9.740;2022-11-24T05:49:48;5.50;99.90
4964;DHT22;2497;47.410;9.740;2022-11-24T05:52:16;5.40;99.90
4964;DHT22;2497;47.410;9.740;2022-11-24T05:54:44;5.40;99.90
4964;DHT22;2497;47.410;9.740;2022-11-24T05:57:11;5.40;99.90
4964;DHT22;2497;47.410;9.740;2022-11-24T05:59:39;5.30;99.90
4964;DHT22;2497;47.410;9.740;2022-11-24T06:02:07;5.40;99.90
4964;DHT22;2497;47.410;9.740;2022-11-24T06:04:36;5.40;99.90
4964;DHT22;2497;47.410;9.740;2022-11-24T06:07:05;5.40;99.90
4964;DHT22;2497;47.410;9.740;2022-11-24T06:09:35;5.40;99.90
4964;DHT22;2497;47.410;9.740;2022-11-24T06:12:02;5.40;99.90
4964;DHT22;2497;47.410;9.740;2022-11-24T06:14:30;5.40;99.90
4964;DHT22;2497;47.410;9.740;2022-11-24T06:16:58;5.60;99.90
4964;DHT22;2497;47.410;9.740;2022-11-24T06:19:25;5.90;99.90
4964;DHT22;2497;47.410;9.740;2022-11-24T06:21:54;6.00;99.90
4964;DHT22;2497;47.410;9.740;2022-11-24T06:24:22;6.10;99.90
4964;DHT22;2497;47.410;9.740;2022-11-24T06:26:49;6.00;99.90
4964;DHT22;2497;47.410;9.740;2022-11-24T06:29:16;5.90;99.90
4964;DHT22;2497;47.410;9.740;2022-11-24T06:31:44;5.80;99.90
4964;DHT22;2497;47.410;9.740;2022-11-24T06:34:12;5.90;99.90
4964;DHT22;2497;47.410;9.740;2022-11-24T06:36:40;5.80;99.90
4964;DHT22;2497;47.410;9.740;2022-11-24T06:39:09;5.70;99.90
4964;DHT22;2497;47.410;9.740;2022-11-24T06:41:37;5.70;99.90
4964;DHT22;2497;47.410;9.740;2022-11-24T06:44:05;5.50;99.90
4964;DHT22;2497;47.410;9.740;2022-11-24T06:46:32;5.50;99.90
4964;DHT22;2497;47.410;9.740;2022-11-24T06:49:00;5.50;99.90
4964;DHT22;2497;47.410;9.740;2022-11-24T06:51:28;5.50;99.90
4964;DHT22;2497;47.410;9.740;2022-11-24T06:53:55;5.60;99.90
4964;DHT22;2497;47.410;9.740;2022-11-24T06:56:24;5.50;99.90
4964;DHT22;2497;47.410;9.740;2022-11-24T06:58:52;5.40;99.90
4964;DHT22;2497;47.410;9.740;2022-11-24T07:01:21;5.30;99.90
4964;DHT22;2497;47.410;9.740;2022-11-24T07:03:50;5.30;99.90
4964;DHT22;2497;47.410;9.740;2022-11-24T07:06:19;5.30;99.90
4964;DHT22;2497;47.410;9.740;2022-11-24T07:08:47;5.40;99.90
4964;DHT22;2497;47.410;9.740;2022-11-24T07:11:16;5.30;99.90
4964;DHT22;2497;47.410;9.740;2022-11-24T07:13:46;5.40;99.90
4964;DHT22;2497;47.410;9.740;2022-11-24T07:16:17;5.40;99.90
4964;DHT22;2497;47.410;9.740;2022-11-24T07:18:46;5.40;99.90
4964;DHT22;2497;47.410;9.740;2022-11-24T07:21:14;5.50;99.90
4964;DHT22;2497;47.410;9.740;2022-11-24T07:23:42;5.50;99.90
4964;DHT22;2497;47.410;9.740;2022-11-24T07:26:10;5.50;99.90
4964;DHT22;2497;47.410;9.740;2022-11-24T07:28:38;5.50;99.90
4964;DHT22;2497;47.410;9.740;2022-11-24T07:31:08;5.50;99.90
4964;DHT22;2497;47.410;9.740;2022-11-24T07:33:38;5.60;99.90
4964;DHT22;2497;47.410;9.740;2022-11-24T07:36:06;5.70;99.90
4964;DHT22;2497;47.410;9.740;2022-11-24T07:38:34;5.70;99.90
4964;DHT22;2497;47.410;9.740;2022-11-24T07:41:04;5.70;99.90
4964;DHT22;2497;47.410;9.740;2022-11-24T07:43:34;5.70;99.90
4964;DHT22;2497;47.410;9.740;2022-11-24T07:46:02;5.80;99.90
4964;DHT22;2497;47.410;9.740;2022-11-24T07:48:32;5.90;99.90
4964;DHT22;2497;47.410;9.740;2022-11-24T07:50:59;5.80;99.90
4964;DHT22;2497;47.410;9.740;2022-11-24T07:53:27;5.90;99.90
4964;DHT22;2497;47.410;9.740;2022-11-24T07:55:56;5.90;99.90
4964;DHT22;2497;47.410;9.740;2022-11-24T07:58:26;5.80;99.90
4964;DHT22;2497;47.410;9.740;2022-11-24T08:00:54;5.80;99.90
4964;DHT22;2497;47.410;9.740;2022-11-24T08:03:22;5.80;99.90
4964;DHT22;2497;47.410;9.740;2022-11-24T08:05:54;5.90;99.90
4964;DHT22;2497;47.410;9.740;2022-11-24T08:08:22;5.80;99.90
4964;DHT22;2497;47.410;9.740;2022-11-24T08:10:50;6.00;99.90
4964;DHT22;2497;47.410;9.740;2022-11-24T08:13:18;5.90;99.90
4964;DHT22;2497;47.410;9.740;2022-11-24T08:15:45;5.90;99.90
4964;DHT22;2497;47.410;9.740;2022-11-24T08:18:13;6.00;99.90
4964;DHT22;2497;47.410;9.740;2022-11-24T08:20:40;6.00;99.90
4964;DHT22;2497;47.410;9.740;2022-11-24T08:23:09;6.00;99.90
4964;DHT22;2497;47.410;9.740;2022-11-24T08:25:37;6.00;99.90
4964;DHT22;2497;47.410;9.740;2022-11-24T08:28:05;6.00;99.90
4964;DHT22;2497;47.410;9.740;2022-11-24T08:30:32;6.00;99.90
4964;DHT22;2497;47.410;9.740;2022-11-24T08:33:00;6.00;99.90
4964;DHT22;2497;47.410;9.740;2022-11-24T08:35:28;6.10;99.90
4964;DHT22;2497;47.410;9.740;2022-11-24T08:37:55;6.10;99.90
4964;DHT22;2497;47.410;9.740;2022-11-24T08:40:24;6.10;99.90
4964;DHT22;2497;47.410;9.740;2022-11-24T08:42:54;6.10;99.90
4964;DHT22;2497;47.410;9.740;2022-11-24T08:45:23;6.30;99.90
4964;DHT22;2497;47.410;9.740;2022-11-24T08:47:51;6.30;99.90
4964;DHT22;2497;47.410;9.740;2022-11-24T08:50:19;6.30;99.90
4964;DHT22;2497;47.410;9.740;2022-11-24T08:52:47;6.30;99.90
4964;DHT22;2497;47.410;9.740;2022-11-24T08:55:14;6.40;99.90
4964;DHT22;2497;47.410;9.740;2022-11-24T08:57:44;6.30;99.90
4964;DHT22;2497;47.410;9.740;2022-11-24T09:00:12;6.40;99.90
4964;DHT22;2497;47.410;9.740;2022-11-24T09:02:52;6.40;99.90
4964;DHT22;2497;47.410;9.740;2022-11-24T09:05:20;6.40;99.90
4964;DHT22;2497;47.410;9.740;2022-11-24T09:07:47;6.60;99.90
4964;DHT22;2497;47.410;9.740;2022-11-24T09:10:15;6.80;99.90
4964;DHT22;2497;47.410;9.740;2022-11-24T09:12:45;6.80;99.90
4964;DHT22;2497;47.410;9.740;2022-11-24T09:15:12;6.80;99.90
4964;DHT22;2497;47.410;9.740;2022-11-24T09:17:41;6.90;99.90
4964;DHT22;2497;47.410;9.740;2022-11-24T09:20:09;6.90;99.90
4964;DHT22;2497;47.410;9.740;2022-11-24T09:22:37;6.90;99.90
4964;DHT22;2497;47.410;9.740;2022-11-24T09:25:06;6.80;99.90
4964;DHT22;2497;47.410;9.740;2022-11-24T09:27:34;6.80;99.90
4964;DHT22;2497;47.410;9.740;2022-11-24T09:30:08;6.80;99.90
4964;DHT22;2497;47.410;9.740;2022-11-24T09:32:36;6.70;99.90
4964;DHT22;2497;47.410;9.740;2022-11-24T09:35:05;6.60;99.90
4964;DHT22;2497;47.410;9.740;2022-11-24T09:37:32;6.50;99.90
4964;DHT22;2497;47.410;9.740;2022-11-24T09:40:00;6.40;99.90
4964;DHT22;2497;47.410;9.740;2022-11-24T09:42:36;6.30;99.90
4964;DHT22;2497;47.410;9.740;2022-11-24T09:45:20;6.30;99.90
4964;DHT22;2497;47.410;9.740;2022-11-24T09:47:58;6.20;99.90
4964;DHT22;2497;47.410;9.740;2022-11-24T09:50:31;6.30;99.90
4964;DHT22;2497;47.410;9.740;2022-11-24T09:53:03;6.30;99.90
4964;DHT22;2497;47.410;9.740;2022-11-24T09:55:41;6.40;99.90
4964;DHT22;2497;47.410;9.740;2022-11-24T09:58:17;6.30;99.90
4964;DHT22;2497;47.410;9.740;2022-11-24T10:00:52;6.40;99.90
4964;DHT22;2497;47.410;9.740;2022-11-24T10:03:25;6.40;99.90
4964;DHT22;2497;47.410;9.740;2022-11-24T10:05:54;6.40;99.90
4964;DHT22;2497;47.410;9.740;2022-11-24T10:08:43;6.30;99.90
4964;DHT22;2497;47.410;9.740;2022-11-24T10:11:15;6.30;99.90
4964;DHT22;2497;47.410;9.740;2022-11-24T10:14:24;6.40;99.90
4964;DHT22;2497;47.410;9.740;2022-11-24T10:17:04;6.40;99.90
4964;DHT22;2497;47.410;9.740;2022-11-24T10:19:42;6.40;99.90
4964;DHT22;2497;47.410;9.740;2022-11-24T10:22:27;6.40;99.90
4964;DHT22;2497;47.410;9.740;2022-11-24T10:25:08;6.50;99.90
4964;DHT22;2497;47.410;9.740;2022-11-24T10:27:42;6.50;99.90
4964;DHT22;2497;47.410;9.740;2022-11-24T10:30:15;6.50;99.90
4964;DHT22;2497;47.410;9.740;2022-11-24T10:32:54;6.70;99.90
4964;DHT22;2497;47.410;9.740;2022-11-24T10:35:27;7.00;99.90
4964;DHT22;2497;47.410;9.740;2022-11-24T10:38:06;7.30;99.90
4964;DHT22;2497;47.410;9.740;2022-11-24T10:40:39;7.40;99.90
4964;DHT22;2497;47.410;9.740;2022-11-24T10:43:10;7.50;99.90
4964;DHT22;2497;47.410;9.740;2022-11-24T10:45:38;7.70;99.90
4964;DHT22;2497;47.410;9.740;2022-11-24T10:48:15;7.80;99.90
4964;DHT22;2497;47.410;9.740;2022-11-24T10:50:44;8.00;99.90
4964;DHT22;2497;47.410;9.740;2022-11-24T10:53:16;8.10;99.90
4964;DHT22;2497;47.410;9.740;2022-11-24T10:55:59;8.20;99.90
4964;DHT22;2497;47.410;9.740;2022-11-24T10:58:29;8.20;99.90
4964;DHT22;2497;47.410;9.740;2022-11-24T11:00:58;8.10;99.90
4964;DHT22;2497;47.410;9.740;2022-11-24T11:03:45;8.20;99.90
4964;DHT22;2497;47.410;9.740;2022-11-24T11:06:14;8.50;99.90
4964;DHT22;2497;47.410;9.740;2022-11-24T11:08:46;8.70;99.90
4964;DHT22;2497;47.410;9.740;2022-11-24T11:11:20;9.00;99.90
4964;DHT22;2497;47.410;9.740;2022-11-24T11:13:50;9.20;99.90
4964;DHT22;2497;47.410;9.740;2022-11-24T11:16:25;9.20;99.90
4964;DHT22;2497;47.410;9.740;2022-11-24T11:18:57;9.10;99.90
4964;DHT22;2497;47.410;9.740;2022-11-24T11:21:33;9.40;99.90
4964;DHT22;2497;47.410;9.740;2022-11-24T11:24:03;9.50;99.90
4964;DHT22;2497;47.410;9.740;2022-11-24T11:26:34;9.60;99.90
4964;DHT22;2497;47.410;9.740;2022-11-24T11:29:12;9.80;99.90
4964;DHT22;2497;47.410;9.740;2022-11-24T11:31:40;9.80;99.90
4964;DHT22;2497;47.410;9.740;2022-11-24T11:34:17;9.90;99.90
4964;DHT22;2497;47.410;9.740;2022-11-24T11:36:48;9.90;99.90
4964;DHT22;2497;47.410;9.740;2022-11-24T11:39:22;9.80;99.90
4964;DHT22;2497;47.410;9.740;2022-11-24T11:41:54;9.80;99.90
4964;DHT22;2497;47.410;9.740;2022-11-24T11:44:32;9.70;99.90
4964;DHT22;2497;47.410;9.740;2022-11-24T11:47:07;9.60;99.90
4964;DHT22;2497;47.410;9.740;2022-11-24T11:49:37;9.60;99.90
4964;DHT22;2497;47.410;9.740;2022-11-24T11:55:20;9.60;99.90
4964;DHT22;2497;47.410;9.740;2022-11-24T11:57:55;9.50;99.90
4964;DHT22;2497;47.410;9.740;2022-11-24T12:00:26;9.60;99.90
4964;DHT22;2497;47.410;9.740;2022-11-24T12:03:27;9.50;99.90
4964;DHT22;2497;47.410;9.740;2022-11-24T12:06:10;9.40;99.90
4964;DHT22;2497;47.410;9.740;2022-11-24T12:08:48;9.40;99.90
4964;DHT22;2497;47.410;9.740;2022-11-24T12:11:22;9.40;99.90
4964;DHT22;2497;47.410;9.740;2022-11-24T12:14:11;9.00;99.90
4964;DHT22;2497;47.410;9.740;2022-11-24T12:16:56;9.00;99.90
4964;DHT22;2497;47.410;9.740;2022-11-24T12:19:44;8.90;99.90
4964;DHT22;2497;47.410;9.740;2022-11-24T12:22:23;8.80;99.90
4964;DHT22;2497;47.410;9.740;2022-11-24T12:24:56;8.80;99.90
4964;DHT22;2497;47.410;9.740;2022-11-24T12:27:35;8.80;99.90
4964;DHT22;2497;47.410;9.740;2022-11-24T12:30:11;8.60;99.90
4964;DHT22;2497;47.410;9.740;2022-11-24T12:33:02;8.40;99.90
4964;DHT22;2497;47.410;9.740;2022-11-24T12:35:36;8.30;99.90
4964;DHT22;2497;47.410;9.740;2022-11-24T12:38:19;8.20;99.90
4964;DHT22;2497;47.410;9.740;2022-11-24T12:41:02;8.10;99.90
4964;DHT22;2497;47.410;9.740;2022-11-24T12:43:34;8.00;99.90
4964;DHT22;2497;47.410;9.740;2022-11-24T12:46:07;7.80;99.90
4964;DHT22;2497;47.410;9.740;2022-11-24T12:48:47;7.60;99.90
4964;DHT22;2497;47.410;9.740;2022-11-24T12:51:28;7.40;99.90
4964;DHT22;2497;47.410;9.740;2022-11-24T12:54:02;7.30;99.90
4964;DHT22;2497;47.410;9.740;2022-11-24T12:56:36;7.20;99.90
4964;DHT22;2497;47.410;9.740;2022-11-24T12:59:17;7.20;99.90
4964;DHT22;2497;47.410;9.740;2022-11-24T13:01:51;7.20;99.90
4964;DHT22;2497;47.410;9.740;2022-11-24T13:04:28;7.30;99.90
4964;DHT22;2497;47.410;9.740;2022-11-24T13:06:59;7.20;99.90
4964;DHT22;2497;47.410;9.740;2022-11-24T13:09:29;7.20;99.90
4964;DHT22;2497;47.410;9.740;2022-11-24T13:12:09;7.30;99.90
4964;DHT22;2497;47.410;9.740;2022-11-24T13:14:38;7.40;99.90
4964;DHT22;2497;47.410;9.740;2022-11-24T13:17:23;7.40;99.90
4964;DHT22;2497;47.410;9.740;2022-11-24T13:20:13;7.30;99.90
4964;DHT22;2497;47.410;9.740;2022-11-24T13:22:45;7.20;99.90
4964;DHT22;2497;47.410;9.740;2022-11-24T13:25:19;7.10;99.90
4964;DHT22;2497;47.410;9.740;2022-11-24T13:27:49;7.10;99.90
4964;DHT22;2497;47.410;9.740;2022-11-24T13:33:42;7.10;99.90
4964;DHT22;2497;47.410;9.740;2022-11-24T13:36:28;7.10;99.90
4964;DHT22;2497;47.410;9.740;2022-11-24T13:38:56;7.20;99.90
4964;DHT22;2497;47.410;9.740;2022-11-24T13:44:51;7.50;99.90
4964;DHT22;2497;47.410;9.740;2022-11-24T13:47:35;7.70;99.90
4964;DHT22;2497;47.410;9.740;2022-11-24T13:50:07;7.70;99.90
4964;DHT22;2497;47.410;9.740;2022-11-24T13:52:44;7.60;99.90
4964;DHT22;2497;47.410;9.740;2022-11-24T13:55:26;7.70;99.90
4964;DHT22;2497;47.410;9.740;2022-11-24T13:57:58;8.00;99.90
4964;DHT22;2497;47.410;9.740;2022-11-24T14:00:29;8.20;99.90
4964;DHT22;2497;47.410;9.740;2022-11-24T14:02:59;8.20;99.90
4964;DHT22;2497;47.410;9.740;2022-11-24T14:05:35;8.50;99.90
4964;DHT22;2497;47.410;9.740;2022-11-24T14:08:05;9.10;99.90
4964;DHT22;2497;47.410;9.740;2022-11-24T14:10:36;9.50;99.90
4964;DHT22;2497;47.410;9.740;2022-11-24T14:13:22;9.50;99.90
4964;DHT22;2497;47.410;9.740;2022-11-24T14:16:13;9.60;99.90
4964;DHT22;2497;47.410;9.740;2022-11-24T14:18:43;9.60;99.90
4964;DHT22;2497;47.410;9.740;2022-11-24T14:21:23;9.50;99.90
4964;DHT22;2497;47.410;9.740;2022-11-24T14:23:53;9.00;99.90
4964;DHT22;2497;47.410;9.740;2022-11-24T14:26:23;8.80;99.90
4964;DHT22;2497;47.410;9.740;2022-11-24T14:28:53;8.40;99.90
4964;DHT22;2497;47.410;9.740;2022-11-24T14:31:30;8.20;99.90
4964;DHT22;2497;47.410;9.740;2022-11-24T14:34:13;8.10;99.90
4964;DHT22;2497;47.410;9.740;2022-11-24T14:36:41;8.10;99.90
4964;DHT22;2497;47.410;9.740;2022-11-24T14:39:13;8.30;99.90
4964;DHT22;2497;47.410;9.740;2022-11-24T14:41:42;8.70;99.90
4964;DHT22;2497;47.410;9.740;2022-11-24T14:44:18;8.90;99.90
4964;DHT22;2497;47.410;9.740;2022-11-24T14:46:48;8.80;99.90
4964;DHT22;2497;47.410;9.740;2022-11-24T14:49:20;8.80;99.90
4964;DHT22;2497;47.410;9.740;2022-11-24T14:51:53;8.50;99.90
4964;DHT22;2497;47.410;9.740;2022-11-24T14:54:23;8.40;99.90
4964;DHT22;2497;47.410;9.740;2022-11-24T14:57:01;8.20;99.90
4964;DHT22;2497;47.410;9.740;2022-11-24T14:59:30;8.10;99.90
4964;DHT22;2497;47.410;9.740;2022-11-24T15:02:01;7.90;99.90
4964;DHT22;2497;47.410;9.740;2022-11-24T15:04:30;7.80;99.90
4964;DHT22;2497;47.410;9.740;2022-11-24T15:07:03;7.70;99.90
4964;DHT22;2497;47.410;9.740;2022-11-24T15:09:35;7.50;99.90
4964;DHT22;2497;47.410;9.740;2022-11-24T15:12:06;7.40;99.90
4964;DHT22;2497;47.410;9.740;2022-11-24T15:14:42;7.30;99.90
4964;DHT22;2497;47.410;9.740;2022-11-24T15:17:17;7.20;99.90
4964;DHT22;2497;47.410;9.740;2022-11-24T15:19:48;7.00;99.90
4964;DHT22;2497;47.410;9.740;2022-11-24T15:22:31;6.90;99.90
4964;DHT22;2497;47.410;9.740;2022-11-24T15:24:59;6.70;99.90
4964;DHT22;2497;47.410;9.740;2022-11-24T15:27:26;6.60;99.90
4964;DHT22;2497;47.410;9.740;2022-11-24T15:29:54;6.60;99.90
4964;DHT22;2497;47.410;9.740;2022-11-24T15:32:23;6.50;99.90
4964;DHT22;2497;47.410;9.740;2022-11-24T15:34:51;6.40;99.90
4964;DHT22;2497;47.410;9.740;2022-11-24T15:37:18;6.50;99.90
4964;DHT22;2497;47.410;9.740;2022-11-24T15:39:46;6.50;99.90
4964;DHT22;2497;47.410;9.740;2022-11-24T15:42:14;6.40;99.90
4964;DHT22;2497;47.410;9.740;2022-11-24T15:44:41;6.40;99.90
4964;DHT22;2497;47.410;9.740;2022-11-24T15:47:08;6.40;99.90
4964;DHT22;2497;47.410;9.740;2022-11-24T15:49:37;6.30;99.90
4964;DHT22;2497;47.410;9.740;2022-11-24T15:52:04;6.10;99.90
4964;DHT22;2497;47.410;9.740;2022-11-24T15:54:32;6.00;99.90
4964;DHT22;2497;47.410;9.740;2022-11-24T15:56:59;5.90;99.90
4964;DHT22;2497;47.410;9.740;2022-11-24T15:59:27;5.80;99.90
4964;DHT22;2497;47.410;9.740;2022-11-24T16:01:56;5.70;99.90
4964;DHT22;2497;47.410;9.740;2022-11-24T16:04:23;5.60;99.90
4964;DHT22;2497;47.410;9.740;2022-11-24T16:06:54;5.50;99.90
4964;DHT22;2497;47.410;9.740;2022-11-24T16:09:21;5.50;99.90
4964;DHT22;2497;47.410;9.740;2022-11-24T16:11:48;5.50;99.90
4964;DHT22;2497;47.410;9.740;2022-11-24T16:14:17;5.50;99.90
4964;DHT22;2497;47.410;9.740;2022-11-24T16:16:45;5.50;99.90
4964;DHT22;2497;47.410;9.740;2022-11-24T16:19:12;5.50;99.90
4964;DHT22;2497;47.410;9.740;2022-11-24T16:21:40;5.50;99.90
4964;DHT22;2497;47.410;9.740;2022-11-24T16:24:10;5.40;99.90
4964;DHT22;2497;47.410;9.740;2022-11-24T16:26:38;5.50;99.90
4964;DHT22;2497;47.410;9.740;2022-11-24T16:29:07;5.50;99.90
4964;DHT22;2497;47.410;9.740;2022-11-24T16:31:35;5.50;99.90
4964;DHT22;2497;47.410;9.740;2022-11-24T16:34:03;5.50;99.90
4964;DHT22;2497;47.410;9.740;2022-11-24T16:36:30;5.40;99.90
4964;DHT22;2497;47.410;9.740;2022-11-24T16:38:59;5.20;99.90
4964;DHT22;2497;47.410;9.740;2022-11-24T16:41:28;5.20;99.90
4964;DHT22;2497;47.410;9.740;2022-11-24T16:43:56;5.00;99.90
4964;DHT22;2497;47.410;9.740;2022-11-24T16:46:24;4.90;99.90
4964;DHT22;2497;47.410;9.740;2022-11-24T16:48:52;4.70;99.90
4964;DHT22;2497;47.410;9.740;2022-11-24T16:51:22;4.70;99.90